Time;durP1;ratioP1;P1;durP2;ratioP2;P2;SDS_P1;SDS_P2;PMS_P1;PMS_P2;Temp;Humidity;BMP_temperature;BMP_pressure;BME280_temperature;BME280_humidity;BME280_pressure;Samples;Min_cycle;Max_cycle;Signal;HPM_P1;HPM_P2
2022/12/22 03:26:27;;;;;;;86.07;40.33;;;;;;;7.02;100.00;100060.09;2071192;28;38399;-70
2022/12/22 03:27:29;;;;;;;89.78;41.92;;;;;;;7.03;100.00;100054.72;2071460;28;20045;-70
2022/12/22 03:28:31;;;;;;;92.15;41.85;;;;;;;7.03;100.00;100046.75;2062440;28;41554;-70
2022/12/22 03:29:35;;;;;;;85.53;40.85;;;;;;;7.04;100.00;100053.81;2062241;28;43363;-70
2022/12/22 03:30:39;;;;;;;83.85;40.97;;;;;;;7.04;100.00;100045.81;2072283;28;20847;-70
2022/12/22 03:31:40;;;;;;;86.20;41.22;;;;;;;7.05;100.00;100054.66;2070897;28;42185;-70
2022/12/22 03:32:42;;;;;;;86.07;41.03;;;;;;;7.05;100.00;100046.69;2071594;28;38429;-70
2022/12/22 03:33:44;;;;;;;87.72;41.53;;;;;;;7.05;100.00;100050.25;2071212;28;38824;-70
2022/12/22 03:34:46;;;;;;;99.30;43.33;;;;;;;7.06;100.00;100048.44;2071413;28;40518;-70
2022/12/22 03:35:47;;;;;;;82.65;39.65;;;;;;;7.06;100.00;100032.47;2072100;28;20031;-70
2022/12/22 03:36:49;;;;;;;89.35;41.05;;;;;;;7.08;100.00;100041.31;2071065;28;40660;-70
2022/12/22 03:37:51;;;;;;;90.65;41.60;;;;;;;7.06;100.00;100043.13;2070806;28;38220;-70
2022/12/22 03:38:52;;;;;;;81.05;41.30;;;;;;;7.08;100.00;100038.63;2072677;28;20038;-70
2022/12/22 03:39:54;;;;;;;87.95;41.55;;;;;;;7.07;100.00;100036.91;2070651;28;42282;-70
2022/12/22 03:40:56;;;;;;;87.03;41.53;;;;;;;7.07;100.00;100032.44;2071328;28;39282;-69
2022/12/22 03:47:19;;;;;;;;;;;;;;;7.08;100.00;100020.88;2071759;28;40003;-70
2022/12/22 03:48:24;;;;;;;82.53;39.28;;;;;;;7.09;100.00;100021.78;2071564;28;19961;-70
2022/12/22 03:49:25;;;;;;;85.43;40.17;;;;;;;7.09;100.00;100013.78;2071874;28;20796;-70
2022/12/22 03:50:27;;;;;;;89.95;39.88;;;;;;;7.09;100.00;100016.44;2062313;28;39181;-69
2022/12/22 03:51:29;;;;;;;90.68;41.20;;;;;;;7.10;100.00;100014.66;2062601;28;38318;-70
2022/12/22 03:52:31;;;;;;;84.55;40.30;;;;;;;7.09;100.00;100011.13;2070810;28;39673;-70
2022/12/22 03:53:33;;;;;;;83.10;40.58;;;;;;;7.08;100.00;100015.56;2071329;28;37612;-69
2022/12/22 03:54:34;;;;;;;81.43;40.10;;;;;;;7.10;100.00;100018.19;2070989;28;40965;-70
2022/12/22 03:55:36;;;;;;;86.13;40.33;;;;;;;7.10;100.00;100012.84;2071439;28;38527;-70
2022/12/22 03:56:39;;;;;;;68.38;35.70;;;;;;;7.11;100.00;100013.75;2070859;28;42444;-69
2022/12/22 03:57:40;;;;;;;79.43;39.38;;;;;;;7.11;100.00;100011.97;2071212;28;39774;-70
2022/12/22 03:58:42;;;;;;;82.53;38.75;;;;;;;7.12;100.00;100011.03;2070290;28;38909;-70
2022/12/22 03:59:44;;;;;;;84.18;40.75;;;;;;;7.12;100.00;100005.69;2070419;28;42976;-69
2022/12/22 04:00:46;;;;;;;81.85;38.50;;;;;;;7.13;100.00;100003.94;2072006;28;20054;-70
2022/12/22 04:01:51;;;;;;;84.97;38.50;;;;;;;7.11;100.00;100011.97;2071767;28;38044;-70
2022/12/22 04:02:53;;;;;;;77.72;38.63;;;;;;;7.12;100.00;100012.81;2062189;28;38954;-69
2022/12/22 04:03:55;;;;;;;81.00;38.67;;;;;;;7.12;100.00;100016.34;2063133;28;36611;-69
2022/12/22 04:04:56;;;;;;;79.45;39.90;;;;;;;7.12;100.00;100010.16;2071123;28;40890;-70
2022/12/22 04:05:59;;;;;;;81.28;39.65;;;;;;;7.12;100.00;100011.03;2071262;28;39172;-69
2022/12/22 04:07:00;;;;;;;80.65;37.50;;;;;;;7.12;100.00;100012.81;2070856;28;39379;-70
2022/12/22 04:08:02;;;;;;;81.25;38.75;;;;;;;7.12;100.00;100011.03;2071174;28;42744;-69
2022/12/22 04:09:05;;;;;;;81.88;39.33;;;;;;;7.11;100.00;100003.97;2071078;28;36981;-70
2022/12/22 04:12:54;;;;;;;83.90;38.78;;;;;;;7.11;100.00;100003.09;2071186;28;40645;-70
2022/12/22 04:13:56;;;;;;;83.70;38.53;;;;;;;7.12;100.00;100004.84;2070692;28;39845;-70
2022/12/22 04:14:57;;;;;;;81.80;38.53;;;;;;;7.12;100.00;100007.50;2071949;28;20027;-70
2022/12/22 04:15:59;;;;;;;77.25;37.00;;;;;;;7.11;100.00;99993.31;2070851;28;41993;-70
2022/12/22 04:17:03;;;;;;;89.97;38.83;;;;;;;7.12;100.00;100005.69;2070952;28;37842;-70
2022/12/22 04:18:05;;;;;;;75.93;38.13;;;;;;;7.09;100.00;100003.13;2070923;28;38668;-69
2022/12/22 04:19:08;;;;;;;72.45;37.65;;;;;;;7.10;100.00;100002.22;2071263;28;37401;-70
2022/12/22 04:20:10;;;;;;;80.90;38.05;;;;;;;7.11;100.00;100003.97;2070998;28;21748;-70
2022/12/22 04:21:12;;;;;;;84.38;39.35;;;;;;;7.11;100.00;100006.63;2070492;28;40192;-70
2022/12/22 04:22:14;;;;;;;87.55;40.80;;;;;;;7.11;100.00;99996.00;2071136;28;40136;-69
2022/12/22 04:23:15;;;;;;;76.63;37.13;;;;;;;7.10;100.00;99991.56;2071478;28;20809;-69
2022/12/22 04:24:19;;;;;;;80.20;39.80;;;;;;;7.11;100.00;99993.31;2071028;28;43020;-69
2022/12/22 04:25:25;;;;;;;83.43;40.03;;;;;;;7.12;100.00;99989.72;2062431;28;44071;-69
2022/12/22 04:26:29;;;;;;;87.43;38.72;;;;;;;7.11;100.00;99993.31;2063558;28;23884;-69
2022/12/22 04:27:31;;;;;;;88.13;40.63;;;;;;;7.10;100.00;99990.69;2071044;28;40510;-70
2022/12/22 04:28:32;;;;;;;83.22;40.25;;;;;;;7.11;100.00;99993.31;2071079;28;36214;-70
2022/12/22 04:29:34;;;;;;;86.10;39.03;;;;;;;7.11;100.00;99992.47;2070575;28;37455;-70
2022/12/22 04:30:36;;;;;;;82.35;40.55;;;;;;;7.09;100.00;99989.84;2071158;28;40921;-70
2022/12/22 04:31:37;;;;;;;86.57;39.95;;;;;;;7.11;100.00;99989.81;2071142;28;37876;-70
2022/12/22 04:32:39;;;;;;;78.45;38.97;;;;;;;7.11;100.00;99992.47;2071577;28;20831;-69
2022/12/22 04:33:41;;;;;;;80.15;38.47;;;;;;;7.12;100.00;100000.38;2070939;28;42203;-70
2022/12/22 04:34:42;;;;;;;87.10;41.13;;;;;;;7.10;100.00;99991.56;2071008;28;38221;-70
2022/12/22 04:35:44;;;;;;;85.13;40.58;;;;;;;7.11;100.00;99990.66;2070987;28;38450;-70
2022/12/22 04:36:46;;;;;;;82.93;39.80;;;;;;;7.11;100.00;99988.00;2070793;28;41044;-69
2022/12/22 04:37:47;;;;;;;90.43;40.10;;;;;;;7.12;100.00;99994.19;2071037;28;40107;-70
2022/12/22 04:38:51;;;;;;;90.25;40.30;;;;;;;7.11;100.00;99993.31;2070778;28;39118;-69
2022/12/22 04:39:53;;;;;;;79.47;38.15;;;;;;;7.11;100.00;99988.00;2071608;28;20038;-70
2022/12/22 04:40:55;;;;;;;86.82;39.97;;;;;;;7.13;100.00;99990.63;2070714;28;41970;-70
2022/12/22 04:42:01;;;;;;;93.32;41.67;;;;;;;7.11;100.00;99987.13;2071719;28;20193;-70
2022/12/22 04:43:03;;;;;;;82.57;38.28;;;;;;;7.11;100.00;99996.00;2070841;28;38596;-69
2022/12/22 04:44:04;;;;;;;86.18;40.78;;;;;;;7.11;100.00;99988.00;2070739;28;38767;-70
2022/12/22 04:45:07;;;;;;;87.90;40.10;;;;;;;7.10;100.00;99983.56;2071270;28;25171;-70
2022/12/22 04:46:09;;;;;;;92.47;42.40;;;;;;;7.10;100.00;99977.38;2070955;28;38954;-70
2022/12/22 04:47:10;;;;;;;77.20;38.65;;;;;;;7.10;100.00;99980.06;2070731;28;41665;-69
2022/12/22 04:48:12;;;;;;;84.97;41.45;;;;;;;7.08;100.00;99982.75;2071976;28;20047;-70
2022/12/22 04:49:14;;;;;;;86.22;40.40;;;;;;;7.09;100.00;99987.16;2070898;28;38038;-70
2022/12/22 04:50:15;;;;;;;81.68;39.55;;;;;;;7.09;100.00;99984.50;2070906;28;40599;-69
2022/12/22 04:51:17;;;;;;;86.00;39.83;;;;;;;7.10;100.00;99986.25;2070808;28;39344;-69
2022/12/22 04:52:19;;;;;;;83.30;39.90;;;;;;;7.10;100.00;99986.25;2072026;28;38226;-69
2022/12/22 04:53:22;;;;;;;87.82;40.70;;;;;;;7.11;100.00;99988.00;2072161;28;32686;-69
2022/12/22 04:54:24;;;;;;;83.05;38.67;;;;;;;7.11;100.00;99987.13;2072383;28;37708;-69
2022/12/22 04:55:26;;;;;;;86.07;40.03;;;;;;;7.11;100.00;99993.31;2072237;28;40523;-69
2022/12/22 04:56:27;;;;;;;84.25;38.85;;;;;;;7.11;100.00;99987.13;2072407;28;40640;-69
2022/12/22 04:57:31;;;;;;;78.50;38.50;;;;;;;7.10;100.00;99986.25;2071445;28;37387;-69
2022/12/22 04:58:39;;;;;;;87.75;41.42;;;;;;;7.12;100.00;99994.19;2072054;28;38407;-68
2022/12/22 04:59:40;;;;;;;83.05;39.10;;;;;;;7.11;100.00;99993.31;2071735;28;39557;-69
2022/12/22 05:00:42;;;;;;;79.70;38.65;;;;;;;7.11;100.00;99984.47;2072490;28;40246;-68
2022/12/22 05:01:44;;;;;;;89.00;39.97;;;;;;;7.09;100.00;99992.50;2072154;28;40852;-68
2022/12/22 05:02:46;;;;;;;83.05;41.13;;;;;;;7.10;100.00;99983.56;2072003;28;35122;-67
2022/12/22 05:03:49;;;;;;;85.18;38.55;;;;;;;7.11;100.00;99992.47;2096104;23;37771;31
2022/12/22 05:04:51;;;;;;;84.20;40.97;;;;;;;7.09;100.00;99981.84;2055704;28;36142;-79
2022/12/22 05:05:55;;;;;;;86.80;40.90;;;;;;;7.11;100.00;99976.50;2047493;28;37352;-79
2022/12/22 05:06:57;;;;;;;84.43;40.25;;;;;;;7.11;100.00;99982.69;2055924;28;40819;-79
2022/12/22 05:08:01;;;;;;;88.43;39.85;;;;;;;7.09;100.00;99979.19;2064077;28;35309;-79
2022/12/22 05:09:03;;;;;;;82.80;40.53;;;;;;;7.09;100.00;99984.50;2064743;28;27985;-78
2022/12/22 05:10:05;;;;;;;84.22;39.25;;;;;;;7.10;100.00;99983.56;2063167;28;42529;-79
2022/12/22 05:11:07;;;;;;;80.97;38.35;;;;;;;7.10;100.00;99980.91;2063492;28;38977;-79
2022/12/22 05:13:32;;;;;;;83.65;39.13;;;;;;;7.08;100.00;99972.97;2063854;28;37552;-79
2022/12/22 05:14:34;;;;;;;77.88;37.97;;;;;;;7.10;100.00;99978.25;2064827;28;20846;-78
2022/12/22 05:15:38;;;;;;;78.22;38.45;;;;;;;7.11;100.00;99966.72;2063875;28;42869;-79
2022/12/22 05:16:39;;;;;;;84.03;38.85;;;;;;;7.10;100.00;99978.25;2064162;28;37544;-79
2022/12/22 05:17:41;;;;;;;79.40;37.33;;;;;;;7.09;100.00;99968.53;2063607;28;39032;-79
2022/12/22 05:18:44;;;;;;;75.72;38.10;;;;;;;7.10;100.00;99969.41;2064135;28;40886;-79
2022/12/22 05:19:46;;;;;;;79.47;38.45;;;;;;;7.11;100.00;99972.03;2063094;28;41215;-79
2022/12/22 05:20:50;;;;;;;77.18;36.45;;;;;;;7.12;100.00;99967.56;2055487;28;39186;-79
2022/12/22 05:21:52;;;;;;;74.28;36.03;;;;;;;7.11;100.00;99964.03;2047636;28;39778;-79
2022/12/22 05:22:54;;;;;;;76.80;37.78;;;;;;;7.11;100.00;99963.19;2055894;28;38756;-79
2022/12/22 05:23:56;;;;;;;78.90;38.25;;;;;;;7.11;100.00;99961.38;2063312;28;38274;-79
2022/12/22 05:24:57;;;;;;;79.80;38.28;;;;;;;7.07;100.00;99960.59;2063254;28;41111;-79
2022/12/22 05:25:59;;;;;;;79.18;37.03;;;;;;;7.09;100.00;99965.88;2056130;28;20040;-79
2022/12/22 05:27:01;;;;;;;78.75;38.40;;;;;;;7.07;100.00;99959.72;2063575;28;40684;-79
2022/12/22 05:28:03;;;;;;;79.55;38.03;;;;;;;7.10;100.00;99964.94;2056472;28;37582;-79
2022/12/22 05:29:05;;;;;;;77.75;37.03;;;;;;;7.09;100.00;99963.22;2055866;28;20142;-79
2022/12/22 05:30:07;;;;;;;82.07;38.85;;;;;;;7.09;100.00;99965.88;2054649;28;41173;-79
2022/12/22 05:31:15;;;;;;;74.63;36.83;;;;;;;7.08;100.00;99956.13;2055696;28;35898;-77
2022/12/22 05:32:17;;;;;;;71.60;36.60;;;;;;;7.08;100.00;99961.44;2056703;28;30429;-79
2022/12/22 05:33:20;;;;;;;75.20;37.90;;;;;;;7.08;100.00;99961.44;2054980;28;39581;-78
2022/12/22 05:34:22;;;;;;;79.07;37.25;;;;;;;7.09;100.00;99960.56;2055504;28;32909;-79
2022/12/22 05:35:23;;;;;;;79.40;38.60;;;;;;;7.08;100.00;99957.00;2058879;28;39950;-79
2022/12/22 05:36:26;;;;;;;78.05;37.72;;;;;;;7.10;100.00;99956.09;2055653;28;38827;-79
2022/12/22 05:37:28;;;;;;;83.05;38.08;;;;;;;7.08;100.00;99959.66;2056077;28;36899;-79
2022/12/22 05:38:30;;;;;;;76.35;39.03;;;;;;;7.07;100.00;99954.41;2055965;28;33822;-78
2022/12/22 05:39:32;;;;;;;78.57;37.85;;;;;;;7.09;100.00;99957.88;2055927;28;40415;-79
2022/12/22 05:40:34;;;;;;;75.47;37.47;;;;;;;7.07;100.00;99952.59;2056020;28;37051;-78
2022/12/22 05:41:35;;;;;;;70.40;35.78;;;;;;;7.08;100.00;99949.00;2055555;28;38398;-79
2022/12/22 05:42:39;;;;;;;79.57;38.67;;;;;;;7.10;100.00;99948.09;2055863;28;42061;-78
2022/12/22 05:43:41;;;;;;;74.15;36.22;;;;;;;7.08;100.00;99951.66;2056380;28;20054;-78
2022/12/22 05:44:43;;;;;;;79.05;38.47;;;;;;;7.09;100.00;99952.56;2055506;28;20138;-78
2022/12/22 05:45:46;;;;;;;78.85;38.72;;;;;;;7.06;100.00;99947.31;2055112;28;36081;-78
2022/12/22 05:46:53;;;;;;;77.20;38.08;;;;;;;7.08;100.00;99956.13;2055240;28;37156;-77
2022/12/22 05:47:55;;;;;;;73.80;37.42;;;;;;;7.08;100.00;99950.81;2047313;28;41107;-78
2022/12/22 05:48:56;;;;;;;81.55;39.33;;;;;;;7.08;100.00;99950.81;2047947;28;20674;-78
2022/12/22 05:49:58;;;;;;;72.47;35.65;;;;;;;7.10;100.00;99951.63;2055778;28;38442;-78
2022/12/22 05:51:00;;;;;;;81.88;37.58;;;;;;;7.09;100.00;99949.91;2055517;28;39630;-78
2022/12/22 05:52:02;;;;;;;77.95;37.33;;;;;;;7.10;100.00;99954.28;2055624;28;38167;-77
2022/12/22 05:53:05;;;;;;;79.93;38.90;;;;;;;7.07;100.00;99947.28;2055702;28;42518;-79
2022/12/22 05:54:08;;;;;;;80.95;38.15;;;;;;;7.07;100.00;99944.63;2055766;28;37017;-79
2022/12/22 05:55:11;;;;;;;84.93;38.22;;;;;;;7.07;100.00;99957.94;2054969;28;37848;-79
2022/12/22 05:56:12;;;;;;;77.60;39.47;;;;;;;7.08;100.00;99948.13;2054962;28;40679;-79
2022/12/22 05:57:14;;;;;;;78.68;38.53;;;;;;;7.08;100.00;99959.66;2055037;28;38647;-79
2022/12/22 05:58:16;;;;;;;80.68;37.92;;;;;;;7.07;100.00;99949.94;2055433;28;41445;-79
2022/12/22 05:59:18;;;;;;;80.22;38.25;;;;;;;7.08;100.00;99951.66;2056317;28;20050;-79
2022/12/22 06:00:20;;;;;;;87.05;40.58;;;;;;;7.07;100.00;99955.25;2055124;28;39057;-79
2022/12/22 06:01:22;;;;;;;88.28;39.65;;;;;;;7.08;100.00;99957.00;2055106;28;41492;-79
2022/12/22 06:02:24;;;;;;;86.88;39.63;;;;;;;7.07;100.00;99963.25;2055527;28;37617;-79
2022/12/22 06:03:28;;;;;;;83.82;38.83;;;;;;;7.10;100.00;99959.63;2055686;28;39158;-79
2022/12/22 06:04:30;;;;;;;92.50;39.92;;;;;;;7.08;100.00;99957.00;2054843;28;40241;-79
2022/12/22 06:05:32;;;;;;;80.55;38.75;;;;;;;7.08;100.00;99957.00;2055190;28;42596;-79
2022/12/22 06:06:33;;;;;;;83.32;38.97;;;;;;;7.10;100.00;99958.75;2055703;28;38454;-79
2022/12/22 06:07:38;;;;;;;82.72;37.83;;;;;;;7.09;100.00;99949.91;2056438;28;20051;-79
2022/12/22 06:08:40;;;;;;;83.20;39.95;;;;;;;7.08;100.00;99950.81;2055088;28;38591;-79
2022/12/22 06:09:41;;;;;;;82.03;38.65;;;;;;;7.10;100.00;99959.63;2054537;28;39045;-79
2022/12/22 06:10:43;;;;;;;84.15;39.35;;;;;;;7.11;100.00;99952.53;2055750;28;34276;-79
2022/12/22 06:11:46;;;;;;;88.78;40.13;;;;;;;7.09;100.00;99941.91;2055652;28;35592;-79
2022/12/22 06:12:48;;;;;;;84.95;38.90;;;;;;;7.10;100.00;99948.97;2055617;28;36969;-79
2022/12/22 06:13:49;;;;;;;85.10;39.33;;;;;;;7.11;100.00;99955.19;2056364;28;20054;-79
2022/12/22 06:14:51;;;;;;;85.53;39.80;;;;;;;7.12;100.00;99951.59;2055311;28;38496;-79
2022/12/22 06:15:53;;;;;;;81.70;38.97;;;;;;;7.11;100.00;99953.41;2056277;28;35880;-79
2022/12/22 06:16:55;;;;;;;81.63;38.53;;;;;;;7.11;100.00;99961.38;2055663;28;38512;-79
2022/12/22 06:17:56;;;;;;;78.78;37.55;;;;;;;7.12;100.00;99955.13;2055193;28;39218;-78
2022/12/22 06:18:58;;;;;;;82.32;38.55;;;;;;;7.11;100.00;99949.88;2055766;28;35327;-78
2022/12/22 06:20:00;;;;;;;84.22;38.47;;;;;;;7.12;100.00;99956.94;2056222;28;20040;-78
2022/12/22 06:21:02;;;;;;;86.90;39.60;;;;;;;7.11;100.00;99947.22;2055253;28;39330;-79
2022/12/22 06:22:04;;;;;;;87.40;41.17;;;;;;;7.13;100.00;99958.69;2055458;28;42034;-79
2022/12/22 06:23:06;;;;;;;85.30;39.03;;;;;;;7.14;100.00;99952.44;2056921;28;20098;-79
2022/12/22 06:24:08;;;;;;;85.57;38.72;;;;;;;7.14;100.00;99949.78;2055628;28;41115;-78
2022/12/22 06:25:10;;;;;;;79.63;37.67;;;;;;;7.13;100.00;99946.25;2055625;28;36040;-78
2022/12/22 06:26:21;;;;;;;89.18;40.20;;;;;;;7.12;100.00;99952.47;2056268;28;20817;-78
2022/12/22 06:27:25;;;;;;;84.95;39.30;;;;;;;7.13;100.00;99948.91;2055483;28;20170;-79
2022/12/22 06:28:27;;;;;;;83.03;39.40;;;;;;;7.12;100.00;99951.59;2055184;28;37282;-79
2022/12/22 06:29:29;;;;;;;83.03;38.53;;;;;;;7.12;100.00;99947.16;2055268;28;38281;-79
2022/12/22 06:30:33;;;;;;;79.05;37.63;;;;;;;7.14;100.00;99949.78;2055081;28;39614;-79
2022/12/22 06:31:36;;;;;;;79.40;37.83;;;;;;;7.15;100.00;99947.06;2055309;28;39197;-79
2022/12/22 06:32:39;;;;;;;85.72;37.97;;;;;;;7.13;100.00;99948.91;2055317;28;40946;-79
2022/12/22 06:33:40;;;;;;;78.50;38.28;;;;;;;7.14;100.00;99940.03;2054432;28;37043;-79
2022/12/22 06:34:42;;;;;;;90.55;40.50;;;;;;;7.14;100.00;99944.44;2055011;28;37405;-78
2022/12/22 06:35:44;;;;;;;81.97;38.97;;;;;;;7.10;100.00;99938.31;2055855;28;29242;-79
2022/12/22 06:36:47;;;;;;;89.13;39.95;;;;;;;7.11;100.00;99948.06;2055138;28;36667;-79
2022/12/22 06:37:51;;;;;;;82.35;38.30;;;;;;;7.10;100.00;99948.97;2055981;28;24877;-79
2022/12/22 06:38:53;;;;;;;90.15;39.33;;;;;;;7.11;100.00;99947.22;2056636;28;20039;-79
2022/12/22 06:39:54;;;;;;;85.57;38.60;;;;;;;7.12;100.00;99946.28;2055500;28;38619;-79
2022/12/22 06:40:56;;;;;;;87.68;39.45;;;;;;;7.10;100.00;99943.66;2055261;28;38684;-79
2022/12/22 06:43:20;;;;;;;85.93;38.17;;;;;;;7.10;100.00;99943.66;2055015;28;40057;-79
2022/12/22 06:44:22;;;;;;;86.88;38.55;;;;;;;7.10;100.00;99938.31;2054791;28;37290;-79
2022/12/22 06:45:26;;;;;;;87.60;39.05;;;;;;;7.11;100.00;99940.09;2055750;28;33851;-79
2022/12/22 06:46:27;;;;;;;91.82;40.00;;;;;;;7.11;100.00;99939.22;2055536;28;38710;-79
2022/12/22 06:47:29;;;;;;;91.05;39.28;;;;;;;7.10;100.00;99938.31;2055423;28;36016;-79
2022/12/22 06:48:31;;;;;;;91.22;39.80;;;;;;;7.11;100.00;99939.22;2055506;28;42649;-79
2022/12/22 06:49:32;;;;;;;88.43;39.78;;;;;;;7.09;100.00;99941.91;2055282;28;20051;-79
2022/12/22 06:50:36;;;;;;;84.57;39.20;;;;;;;7.11;100.00;99941.88;2054795;28;42913;-79
2022/12/22 06:51:38;;;;;;;91.97;40.50;;;;;;;7.10;100.00;99948.97;2054541;28;36422;-79
2022/12/22 06:52:40;;;;;;;93.78;40.80;;;;;;;7.11;100.00;99960.53;2055489;28;20119;-79
2022/12/22 06:53:41;;;;;;;93.85;40.88;;;;;;;7.10;100.00;99959.63;2054054;28;42969;-79
2022/12/22 06:54:45;;;;;;;88.28;38.80;;;;;;;7.11;100.00;99953.41;2055085;28;36702;-79
2022/12/22 06:55:47;;;;;;;89.80;39.80;;;;;;;7.12;100.00;99963.13;2054827;28;34425;-79
2022/12/22 06:56:49;;;;;;;87.78;39.58;;;;;;;7.10;100.00;99970.28;2054858;28;41564;-78
2022/12/22 06:57:53;;;;;;;91.75;41.20;;;;;;;7.12;100.00;99967.56;2056020;28;20032;-79
2022/12/22 06:58:54;;;;;;;96.43;40.70;;;;;;;7.13;100.00;99978.19;2055271;28;36052;-79
2022/12/22 06:59:56;;;;;;;85.80;38.67;;;;;;;7.14;100.00;99974.63;2054766;28;37676;-79
2022/12/22 07:00:58;;;;;;;90.47;40.72;;;;;;;7.14;100.00;99969.31;2055354;28;37298;-79
2022/12/22 07:02:00;;;;;;;88.63;39.58;;;;;;;7.15;100.00;99973.69;2054653;28;40504;-80
2022/12/22 07:03:02;;;;;;;86.93;39.03;;;;;;;7.16;100.00;99975.47;2054852;28;37038;-80
2022/12/22 07:04:04;;;;;;;90.07;38.75;;;;;;;7.17;100.00;99977.19;2054790;28;39014;-79
2022/12/22 07:05:06;;;;;;;84.40;38.15;;;;;;;7.17;100.00;99973.66;2055219;28;41125;-79
2022/12/22 07:06:10;;;;;;;87.97;39.03;;;;;;;7.18;100.00;99986.94;2056119;28;20813;-79
2022/12/22 07:07:12;;;;;;;90.50;39.63;;;;;;;7.16;100.00;99978.13;2054774;28;40963;-80
2022/12/22 07:08:13;;;;;;;93.68;40.45;;;;;;;7.16;100.00;99980.78;2055328;28;39934;-79
2022/12/22 07:09:15;;;;;;;85.15;38.63;;;;;;;7.17;100.00;99985.19;2055617;28;36750;-79
2022/12/22 07:10:17;;;;;;;94.22;41.30;;;;;;;7.17;100.00;99982.50;2054787;28;41412;-79
2022/12/22 07:11:19;;;;;;;92.40;40.55;;;;;;;7.17;100.00;99982.50;2055334;28;38052;-79
2022/12/22 07:12:22;;;;;;;90.05;40.10;;;;;;;7.18;100.00;99988.75;2054921;28;39377;-80
2022/12/22 07:13:33;;;;;;;89.80;40.58;;;;;;;7.19;100.00;99993.13;2055434;28;40648;-79
2022/12/22 07:14:35;;;;;;;81.60;37.67;;;;;;;7.19;100.00;99994.00;2053711;28;37230;-80
2022/12/22 07:15:36;;;;;;;89.40;40.15;;;;;;;7.19;100.00;100001.13;2054574;28;38415;-80
2022/12/22 07:16:38;;;;;;;92.20;40.53;;;;;;;7.19;100.00;100001.13;2055228;28;38230;-80
2022/12/22 07:17:40;;;;;;;89.30;40.60;;;;;;;7.18;100.00;99994.94;2055379;28;35933;-80
2022/12/22 07:18:42;;;;;;;79.43;37.17;;;;;;;7.18;100.00;99997.59;2054983;28;37333;-79
2022/12/22 07:19:44;;;;;;;88.35;40.70;;;;;;;7.18;100.00;100005.56;2054762;28;38601;-78
2022/12/22 07:20:45;;;;;;;86.55;41.05;;;;;;;7.18;100.00;100000.25;2054514;28;42663;-80
2022/12/22 07:21:47;;;;;;;91.60;41.78;;;;;;;7.19;100.00;100006.44;2054752;28;37227;-78
2022/12/22 07:22:51;;;;;;;90.63;41.30;;;;;;;7.18;100.00;100005.56;2054958;28;36565;-78
2022/12/22 07:23:53;;;;;;;94.65;41.42;;;;;;;7.17;100.00;100003.81;2054449;28;42767;-79
2022/12/22 07:24:57;;;;;;;89.40;41.35;;;;;;;7.18;100.00;100016.22;2055107;28;37413;-80
2022/12/22 07:25:59;;;;;;;92.13;40.22;;;;;;;7.18;100.00;100013.56;2055480;28;24731;-78
2022/12/22 07:27:01;;;;;;;86.70;38.35;;;;;;;7.19;100.00;100014.44;2054845;28;37648;-80
2022/12/22 07:28:05;;;;;;;91.05;41.22;;;;;;;7.18;100.00;100018.03;2055217;28;20038;-79
2022/12/22 07:29:07;;;;;;;91.78;40.60;;;;;;;7.18;100.00;100018.88;2054189;28;39486;-80
2022/12/22 07:30:09;;;;;;;92.10;41.17;;;;;;;7.18;100.00;100018.03;2055005;28;33018;-80
2022/12/22 07:31:20;;;;;;;92.88;41.10;;;;;;;7.16;100.00;100019.81;2055465;28;20043;-80
2022/12/22 07:32:25;;;;;;;85.82;40.28;;;;;;;7.17;100.00;100014.47;2055233;28;42291;-80
2022/12/22 07:33:27;;;;;;;90.95;42.08;;;;;;;7.17;100.00;100025.09;2054873;28;36333;-80
2022/12/22 07:34:28;;;;;;;85.70;37.92;;;;;;;7.17;100.00;100019.78;2055883;28;30192;-80
2022/12/22 07:35:30;;;;;;;87.35;39.67;;;;;;;7.16;100.00;100023.38;2054277;28;40776;-80
2022/12/22 07:36:32;;;;;;;90.82;42.20;;;;;;;7.16;100.00;100019.81;2054499;28;36267;-80
2022/12/22 07:37:36;;;;;;;88.88;40.72;;;;;;;7.16;100.00;100020.72;2063916;28;20042;-80
2022/12/22 07:38:42;;;;;;;87.97;42.28;;;;;;;7.15;100.00;100018.94;2063070;28;40816;-80
2022/12/22 07:39:44;;;;;;;90.88;40.65;;;;;;;7.15;100.00;100024.28;2054566;28;40382;-80
2022/12/22 07:40:46;;;;;;;93.00;42.03;;;;;;;7.12;100.00;100018.16;2055187;28;40771;-79
2022/12/22 07:43:17;;;;;;;83.15;38.65;;;;;;;7.14;100.00;100014.56;2063089;28;36568;-79
2022/12/22 07:44:19;;;;;;;90.07;40.78;;;;;;;7.15;100.00;100023.41;2062902;28;40521;-78
2022/12/22 07:45:20;;;;;;;93.50;41.13;;;;;;;7.15;100.00;100021.63;2063410;28;20054;-77
2022/12/22 07:46:28;;;;;;;91.38;41.10;;;;;;;7.15;100.00;100021.63;2063347;28;37483;-83
2022/12/22 07:47:29;;;;;;;88.18;39.80;;;;;;;7.15;100.00;100015.44;2063467;28;36352;-74
2022/12/22 07:51:16;;;;;;;86.53;40.00;;;;;;;7.15;100.00;100024.28;2061824;28;25188;-77
2022/12/22 07:52:18;;;;;;;87.78;39.22;;;;;;;7.16;100.00;100023.38;2062334;28;40152;-79
2022/12/22 07:53:20;;;;;;;90.32;40.88;;;;;;;7.17;100.00;100021.59;2062975;28;34942;-77
2022/12/22 07:54:22;;;;;;;90.75;40.80;;;;;;;7.16;100.00;100023.38;2063229;28;38753;-77
2022/12/22 07:55:28;;;;;;;83.38;38.22;;;;;;;7.16;100.00;100018.06;2062481;28;40119;-77
2022/12/22 07:56:31;;;;;;;93.05;41.90;;;;;;;7.16;100.00;100023.38;2064038;28;20816;-77
2022/12/22 07:57:34;;;;;;;90.47;38.40;;;;;;;7.17;100.00;100027.78;2061224;28;36170;-77
2022/12/22 07:58:36;;;;;;;84.38;38.67;;;;;;;7.17;100.00;100027.78;2062385;28;27880;-77
2022/12/22 07:59:38;;;;;;;95.07;40.28;;;;;;;7.18;100.00;100021.56;2063536;28;20369;-77
2022/12/22 08:00:39;;;;;;;91.40;40.80;;;;;;;7.20;100.00;100024.19;2063280;28;26113;-79
2022/12/22 08:01:42;;;;;;;84.47;39.25;;;;;;;7.18;100.00;100012.69;2063690;28;21038;-79
2022/12/22 08:02:52;;;;;;;89.32;39.08;;;;;;;7.18;100.00;100008.25;2063098;28;37907;-79
2022/12/22 08:03:55;;;;;;;90.53;39.75;;;;;;;7.20;100.00;100019.72;2063069;28;29187;-80
2022/12/22 08:04:57;;;;;;;86.13;39.03;;;;;;;7.18;100.00;100016.22;2063521;28;20043;-79
2022/12/22 08:06:03;;;;;;;85.45;38.75;;;;;;;7.19;100.00;100009.97;2063246;28;34622;-79
2022/12/22 08:07:06;;;;;;;89.85;41.67;;;;;;;7.17;100.00;100008.28;2063535;28;20855;-75
2022/12/22 08:08:07;;;;;;;86.38;40.10;;;;;;;7.17;100.00;100003.81;2062615;28;20050;-78
2022/12/22 08:09:14;;;;;;;87.53;39.53;;;;;;;7.15;100.00;100005.63;2059075;28;36648;-77
2022/12/22 08:10:18;;;;;;;79.38;38.25;;;;;;;7.17;100.00;100013.59;2063508;28;20043;-78
2022/12/22 08:11:20;;;;;;;83.88;39.78;;;;;;;7.14;100.00;100003.91;2062098;28;40000;-78
2022/12/22 08:12:22;;;;;;;82.47;38.75;;;;;;;7.15;100.00;100016.28;2062723;28;37094;-79
2022/12/22 08:13:24;;;;;;;80.88;37.42;;;;;;;7.15;100.00;100010.97;2062859;28;39781;-78
2022/12/22 08:14:25;;;;;;;81.18;36.17;;;;;;;7.17;100.00;100013.59;2063156;28;32097;-78
2022/12/22 08:15:27;;;;;;;85.07;38.85;;;;;;;7.17;100.00;100016.25;2063076;28;27293;-79
2022/12/22 08:16:29;;;;;;;84.45;38.05;;;;;;;7.16;100.00;100002.09;2063280;28;33786;-76
2022/12/22 08:17:31;;;;;;;86.85;39.47;;;;;;;7.17;100.00;99998.50;2063409;28;29156;-77
2022/12/22 08:18:34;;;;;;;83.13;36.72;;;;;;;7.17;100.00;100002.94;2063867;28;20061;-76
2022/12/22 08:19:36;;;;;;;76.40;35.60;;;;;;;7.16;100.00;99991.44;2062782;28;38829;-76
2022/12/22 08:20:37;;;;;;;82.35;38.00;;;;;;;7.15;100.00;99997.66;2061230;28;37332;-77
2022/12/22 08:21:39;;;;;;;83.43;37.17;;;;;;;7.14;100.00;99993.25;2046242;28;34549;-76
2022/12/22 08:22:42;;;;;;;86.13;38.80;;;;;;;7.14;100.00;99993.25;2045938;28;40324;-76
2022/12/22 08:23:44;;;;;;;89.70;39.70;;;;;;;7.12;100.00;99989.72;2054798;28;39988;-77
2022/12/22 08:24:46;;;;;;;91.47;39.83;;;;;;;7.12;100.00;100000.38;2054988;28;37337;-77
2022/12/22 08:25:54;;;;;;;89.88;39.42;;;;;;;7.12;100.00;99994.19;2055137;28;41758;-76
2022/12/22 08:27:02;;;;;;;85.68;39.85;;;;;;;7.13;100.00;99996.81;2048565;28;20052;-77